Time;durP1;ratioP1;P1;durP2;ratioP2;P2;SDS_P1;SDS_P2;PMS_P1;PMS_P2;Temp;Humidity;BMP_temperature;BMP_pressure;BME280_temperature;BME280_humidity;BME280_pressure;Samples;Min_cycle;Max_cycle;Signal;HPM_P1;HPM_P2
2023/06/17 00:00:09;;;;;;;;;;;;;;;-146.25;100.00;51993.09;2080980;28;19937;-70
2023/06/17 00:01:11;;;;;;;;;;;;;;;-146.25;100.00;52009.31;2080391;28;43644;-70
2023/06/17 00:02:15;;;;;;;;;;;;;;;-146.25;100.00;52005.28;2081058;28;30643;-71
2023/06/17 00:03:17;;;;;;;;;;;;;;;-146.25;100.00;52033.66;2081426;28;19921;-70
2023/06/17 00:04:19;;;;;;;;;;;;;;;-146.25;100.00;52021.50;2088258;28;33928;-70
2023/06/17 00:05:21;;;;;;;;;;;;;;;-146.25;100.00;52011.34;2088031;28;35187;-70
2023/06/17 00:06:22;;;;;;;;;;;;;;;-146.25;100.00;52039.75;2081630;28;19917;-70
2023/06/17 00:07:26;;;;;;;;;;;;;;;-146.25;100.00;52035.69;2080856;28;35466;-70
2023/06/17 00:08:28;;;;;;;;;;;;;;;-146.25;100.00;52062.03;2079755;28;35443;-70
2023/06/17 00:09:29;;;;;;;;;;;;;;;-146.25;100.00;52011.34;2080164;28;31771;-70
2023/06/17 00:10:31;;;;;;;;;;;;;;;-146.25;100.00;52015.41;2080846;28;37929;-70
2023/06/17 00:11:33;;;;;;;;;;;;;;;-146.25;100.00;52015.41;2080807;28;34493;-69
2023/06/17 00:12:36;;;;;;;;;;;;;;;-146.25;100.00;52023.53;2080504;28;29401;-70
2023/06/17 00:13:38;;;;;;;;;;;;;;;-146.25;100.00;52045.81;2080893;28;36742;-70
2023/06/17 00:14:41;;;;;;;;;;;;;;;-146.25;100.00;52015.41;2080970;28;35993;-69
2023/06/17 00:15:43;;;;;;;;;;;;;;;-146.25;100.00;51995.13;2080757;28;34565;-70
2023/06/17 00:16:45;;;;;;;;;;;;;;;-146.25;100.00;52007.31;2080721;28;34067;-69
2023/06/17 00:17:49;;;;;;;;;;;;;;;-146.25;100.00;52033.66;2080926;28;37422;-70
2023/06/17 00:18:51;;;;;;;;;;;;;;;-146.25;100.00;52005.28;2081012;28;34193;-70
2023/06/17 00:19:56;;;;;;;;;;;;;;;-146.25;100.00;52070.16;2080872;28;35655;-70
2023/06/17 00:20:58;;;;;;;;;;;;;;;-146.25;100.00;52013.38;2080879;28;37793;-70
2023/06/17 00:22:03;;;;;;;;;;;;;;;-146.25;100.00;52035.69;2081340;28;20019;-70
2023/06/17 00:23:06;;;;;;;;;;;;;;;-146.25;100.00;52047.84;2080567;28;38129;-70
2023/06/17 00:24:12;;;;;;;;;;;;;;;-146.25;100.00;51993.09;2080691;28;34555;-70
2023/06/17 00:25:13;;;;;;;;;;;;;;;-146.25;100.00;52007.31;2080636;28;36356;-70
2023/06/17 00:26:15;;;;;;;;;;;;;;;-146.25;100.00;52035.69;2080627;28;31206;-69
2023/06/17 00:27:17;;;;;;;;;;;;;;;-146.25;100.00;52039.75;2080917;28;19921;-70
2023/06/17 00:28:19;;;;;;;;;;;;;;;-146.25;100.00;52029.59;2080294;28;35976;-70
2023/06/17 00:29:21;;;;;;;;;;;;;;;-146.25;100.00;51999.19;2080109;28;28149;-70
2023/06/17 00:30:22;;;;;;;;;;;;;;;-146.25;100.00;52007.31;2081030;28;26960;-70
2023/06/17 00:31:24;;;;;;;;;;;;;;;-146.25;100.00;52029.59;2080664;28;27219;-71
2023/06/17 00:32:30;;;;;;;;;;;;;;;-146.25;100.00;52043.78;2081553;28;20047;-70
2023/06/17 00:33:31;;;;;;;;;;;;;;;-146.25;100.00;52039.75;2080879;28;33020;-70
2023/06/17 00:34:35;;;;;;;;;;;;;;;-146.25;100.00;51993.09;2080735;28;20052;-70
2023/06/17 00:35:36;;;;;;;;;;;;;;;-146.25;100.00;52058.00;2072157;28;19925;-70
2023/06/17 00:36:38;;;;;;;;;;;;;;;-146.25;100.00;52035.69;2080380;28;33424;-70
2023/06/17 00:37:39;;;;;;;;;;;;;;;-146.25;100.00;52031.63;2080412;28;20912;-71
2023/06/17 00:38:41;;;;;;;;;;;;;;;-146.25;100.00;52007.31;2079967;28;33822;-70
2023/06/17 00:39:45;;;;;;;;;;;;;;;-146.25;100.00;52027.56;2081346;28;20007;-70
2023/06/17 00:40:46;;;;;;;;;;;;;;;-146.25;100.00;52003.25;2081010;28;31945;-70
2023/06/17 00:41:48;;;;;;;;;;;;;;;-146.25;100.00;52023.53;2080920;28;27191;-71
2023/06/17 00:42:50;;;;;;;;;;;;;;;-146.25;100.00;52062.03;2081665;28;29200;-70
2023/06/17 00:43:51;;;;;;;;;;;;;;;-146.25;100.00;52031.63;2081403;28;20497;-70
2023/06/17 00:44:53;;;;;;;;;;;;;;;-146.25;100.00;52049.88;2081045;28;28017;-70
2023/06/17 00:45:55;;;;;;;;;;;;;;;-146.25;100.00;52025.53;2080271;28;19928;-70
2023/06/17 00:46:57;;;;;;;;;;;;;;;-146.25;100.00;52025.53;2080569;28;20784;-70
2023/06/17 00:47:59;;;;;;;;;;;;;;;-146.25;100.00;52011.34;2080522;28;27483;-70
2023/06/17 00:49:02;;;;;;;;;;;;;;;-146.25;100.00;52025.53;2080228;28;19921;-70
2023/06/17 00:50:08;;;;;;;;;;;;;;;-146.25;100.00;52015.41;2080002;28;28930;-71
2023/06/17 00:51:09;;;;;;;;;;;;;;;-146.25;100.00;52023.53;2079940;28;32389;-70
2023/06/17 00:52:16;;;;;;;;;;;;;;;-146.25;100.00;52003.25;2080172;28;27320;-70
2023/06/17 00:53:38;;;;;;;;;;;;;;;-146.25;100.00;52019.47;2088342;28;19917;-70
2023/06/17 00:54:41;;;;;;;;;;;;;;;-146.25;100.00;52019.47;2088190;28;32785;-70
2023/06/17 00:55:44;;;;;;;;;;;;;;;-146.25;100.00;52035.69;2080277;28;19922;-70
2023/06/17 00:56:47;;;;;;;;;;;;;;;-146.25;100.00;51999.19;2079842;28;30217;-70
2023/06/17 00:57:53;;;;;;;;;;;;;;;-146.25;100.00;52011.34;2081019;28;19921;-70
2023/06/17 00:58:56;;;;;;;;;;;;;;;-146.25;100.00;52041.75;2080082;28;23727;-70
2023/06/17 00:59:57;;;;;;;;;;;;;;;-146.25;100.00;52023.53;2079858;28;32654;-70
2023/06/17 01:00:59;;;;;;;;;;;;;;;-146.25;100.00;52017.44;2080704;28;20749;-71
2023/06/17 01:02:01;;;;;;;;;;;;;;;-146.25;100.00;52003.25;2079756;28;20130;-69
2023/06/17 01:03:05;;;;;;;;;;;;;;;-146.25;100.00;52007.31;2088427;28;23463;-70
2023/06/17 01:04:06;;;;;;;;;;;;;;;-146.25;100.00;52051.91;2088289;28;28491;-70
2023/06/17 01:05:11;;;;;;;;;;;;;;;-146.25;100.00;52072.19;2079726;28;36885;-70
2023/06/17 01:06:24;;;;;;;;;;;;;;;-146.25;100.00;52009.31;2080857;28;24135;-70
2023/06/17 01:07:57;;;;;;;;;;;;;;;-146.25;100.00;52025.53;2079842;28;29840;-70
2023/06/17 01:09:02;;;;;;;;;;;;;;;-146.25;100.00;52043.78;2080469;28;19932;-70
2023/06/17 01:10:15;;;;;;;;;;;;;;;-146.25;100.00;52033.66;2088438;28;19928;-70
2023/06/17 01:11:21;;;;;;;;;;;;;;;-146.25;100.00;52039.75;2079221;28;28173;-70
2023/06/17 01:12:26;;;;;;;;;;;;;;;-146.25;100.00;52068.13;2080128;28;31587;-68
2023/06/17 01:13:30;;;;;;;;;;;;;;;-146.25;100.00;52021.50;2080926;28;28195;-70
2023/06/17 01:14:33;;;;;;;;;;;;;;;-146.25;100.00;52011.34;2080793;28;19929;-70
2023/06/17 01:15:36;;;;;;;;;;;;;;;-146.25;100.00;52025.53;2088288;28;20929;-70
2023/06/17 01:16:42;;;;;;;;;;;;;;;-146.25;100.00;52031.63;2080160;28;19929;-70
2023/06/17 01:17:46;;;;;;;;;;;;;;;-146.25;100.00;52007.31;2080739;28;27232;-70
2023/06/17 01:18:52;;;;;;;;;;;;;;;-146.25;100.00;52037.72;2088196;28;20107;-70
2023/06/17 01:19:55;;;;;;;;;;;;;;;-146.25;100.00;52035.69;2088277;28;27819;-70
2023/06/17 01:21:00;;;;;;;;;;;;;;;-146.25;100.00;52037.72;2088075;28;19928;-70
2023/06/17 01:22:06;;;;;;;;;;;;;;;-146.25;100.00;52027.56;2080366;28;29836;-70
2023/06/17 01:23:10;;;;;;;;;;;;;;;-146.25;100.00;51987.03;2080854;28;19926;-70
2023/06/17 01:24:13;;;;;;;;;;;;;;;-146.25;100.00;52021.50;2080873;28;21195;-69
2023/06/17 01:25:20;;;;;;;;;;;;;;;-146.25;100.00;52005.28;2081107;28;19925;-70
2023/06/17 01:26:24;;;;;;;;;;;;;;;-146.25;100.00;52041.75;2080511;28;20075;-71
2023/06/17 01:27:30;;;;;;;;;;;;;;;-146.25;100.00;51987.03;2072442;28;19952;-69
2023/06/17 01:28:34;;;;;;;;;;;;;;;-146.25;100.00;52005.28;2080825;28;19925;-68
2023/06/17 01:29:37;;;;;;;;;;;;;;;-146.25;100.00;52035.69;2087545;28;26319;-69
2023/06/17 01:30:39;;;;;;;;;;;;;;;-146.25;100.00;52005.28;2080477;28;22644;-69
2023/06/17 01:31:40;;;;;;;;;;;;;;;-146.25;100.00;52015.41;2080374;28;26439;-69
2023/06/17 01:32:42;;;;;;;;;;;;;;;-146.25;100.00;52011.34;2079843;28;30209;-69
2023/06/17 01:33:47;;;;;;;;;;;;;;;-146.25;100.00;52035.69;2079739;28;27631;-69
2023/06/17 01:34:58;;;;;;;;;;;;;;;-146.25;100.00;52001.22;2080703;28;27222;-69
2023/06/17 01:36:06;;;;;;;;;;;;;;;-146.25;100.00;52025.53;2081040;28;19980;-69
2023/06/17 01:37:11;;;;;;;;;;;;;;;-146.25;100.00;52058.00;2080778;28;29815;-70
2023/06/17 01:38:20;;;;;;;;;;;;;;;-146.25;100.00;52047.84;2080404;28;29119;-69
2023/06/17 01:39:24;;;;;;;;;;;;;;;-146.25;100.00;52039.75;2080398;28;29123;-70
2023/06/17 01:40:29;;;;;;;;;;;;;;;-146.25;100.00;52027.56;2080265;28;34065;-71
2023/06/17 01:41:38;;;;;;;;;;;;;;;-146.25;100.00;52023.53;2087915;28;20060;-69
2023/06/17 01:42:45;;;;;;;;;;;;;;;-146.25;100.00;52029.59;2079841;28;19933;-70
2023/06/17 01:43:49;;;;;;;;;;;;;;;-146.25;100.00;51989.06;2080039;28;30917;-70
2023/06/17 01:44:54;;;;;;;;;;;;;;;-146.25;100.00;52011.34;2087676;28;29379;-70
2023/06/17 01:45:57;;;;;;;;;;;;;;;-146.25;100.00;52003.25;2080445;28;24905;-69
2023/06/17 01:47:02;;;;;;;;;;;;;;;-146.25;100.00;52021.50;2079863;28;27186;-70
2023/06/17 01:48:04;;;;;;;;;;;;;;;-146.25;100.00;52035.69;2072164;28;19921;-70
2023/06/17 01:49:06;;;;;;;;;;;;;;;-146.25;100.00;52027.56;2071706;28;22989;-70
2023/06/17 01:50:09;;;;;;;;;;;;;;;-146.25;100.00;52019.47;2079923;28;20277;-70
2023/06/17 01:51:10;;;;;;;;;;;;;;;-146.25;100.00;51999.19;2088391;28;20142;-70
2023/06/17 01:52:12;;;;;;;;;;;;;;;-146.25;100.00;52023.53;2081140;28;20707;-70
2023/06/17 01:53:13;;;;;;;;;;;;;;;-146.25;100.00;52039.75;2079557;28;33334;-68
2023/06/17 01:54:17;;;;;;;;;;;;;;;-146.25;100.00;52015.41;2079831;28;20142;-70
2023/06/17 01:55:20;;;;;;;;;;;;;;;-146.25;100.00;51987.03;2080137;28;20219;-69
2023/06/17 01:56:22;;;;;;;;;;;;;;;-146.25;100.00;52011.34;2080074;28;19932;-70
2023/06/17 01:57:25;;;;;;;;;;;;;;;-146.25;100.00;52043.78;2088295;28;27476;-70
2023/06/17 01:58:27;;;;;;;;;;;;;;;-146.25;100.00;52035.69;2079895;28;19975;-70
2023/06/17 01:59:31;;;;;;;;;;;;;;;-146.25;100.00;52039.75;2079794;28;24825;-70
2023/06/17 02:00:33;;;;;;;;;;;;;;;-146.25;100.00;52031.63;2079707;28;24722;-70
2023/06/17 02:01:34;;;;;;;;;;;;;;;-146.25;100.00;52001.22;2081063;28;19921;-70
2023/06/17 02:02:36;;;;;;;;;;;;;;;-146.25;100.00;52051.91;2080722;28;19918;-70
2023/06/17 02:03:39;;;;;;;;;;;;;;;-146.25;100.00;52021.50;2079844;28;23015;-70
2023/06/17 02:04:41;;;;;;;;;;;;;;;-146.25;100.00;52047.84;2079414;28;25973;-70
2023/06/17 02:05:47;;;;;;;;;;;;;;;-146.25;100.00;52037.72;2081104;28;19917;-70
2023/06/17 02:06:52;;;;;;;;;;;;;;;-146.25;100.00;52055.97;2087993;28;19924;-69
2023/06/17 02:07:57;;;;;;;;;;;;;;;-146.25;100.00;52035.69;2079913;28;19955;-70
2023/06/17 02:08:58;;;;;;;;;;;;;;;-146.25;100.00;52027.56;2071547;28;20049;-70
2023/06/17 02:10:00;;;;;;;;;;;;;;;-146.25;100.00;52064.06;2079669;28;31687;-70
2023/06/17 02:11:04;;;;;;;;;;;;;;;-146.25;100.00;52047.84;2088138;28;19932;-70
2023/06/17 02:12:07;;;;;;;;;;;;;;;-146.25;100.00;52021.50;2087763;28;32009;-70
2023/06/17 02:13:09;;;;;;;;;;;;;;;-146.25;100.00;52041.75;2079619;28;19995;-70
2023/06/17 02:14:11;;;;;;;;;;;;;;;-146.25;100.00;52031.63;2071775;28;19930;-70
2023/06/17 02:15:12;;;;;;;;;;;;;;;-146.25;100.00;52084.34;2072059;28;20067;-69
2023/06/17 02:16:17;;;;;;;;;;;;;;;-146.25;100.00;52068.13;2080107;28;19918;-70
2023/06/17 02:17:18;;;;;;;;;;;;;;;-146.25;100.00;52031.63;2079371;28;24523;-70
2023/06/17 02:18:22;;;;;;;;;;;;;;;-146.25;100.00;52053.94;2072053;28;19929;-70
2023/06/17 02:19:23;;;;;;;;;;;;;;;-146.25;100.00;52027.56;2071698;28;19925;-70
2023/06/17 02:20:25;;;;;;;;;;;;;;;-146.25;100.00;52051.91;2079968;28;27156;-70
2023/06/17 02:21:27;;;;;;;;;;;;;;;-146.25;100.00;52009.31;2080141;28;29289;-69
2023/06/17 02:22:28;;;;;;;;;;;;;;;-146.25;100.00;52015.41;2079960;28;33262;-70
2023/06/17 02:23:30;;;;;;;;;;;;;;;-146.25;100.00;52031.63;2080462;28;21977;-69
2023/06/17 02:24:32;;;;;;;;;;;;;;;-146.25;100.00;52055.97;2080067;28;31163;-70
2023/06/17 02:25:34;;;;;;;;;;;;;;;-146.25;100.00;52015.41;2079301;28;32210;-69
2023/06/17 02:26:36;;;;;;;;;;;;;;;-146.25;100.00;52047.84;2071698;28;19953;-70
2023/06/17 02:27:38;;;;;;;;;;;;;;;-146.25;100.00;52064.06;2079669;28;23990;-70
2023/06/17 02:28:42;;;;;;;;;;;;;;;-146.25;100.00;52043.78;2080046;28;30510;-70
2023/06/17 02:29:44;;;;;;;;;;;;;;;-146.25;100.00;52033.66;2080406;28;19921;-70
2023/06/17 02:30:49;;;;;;;;;;;;;;;-146.25;100.00;52039.75;2079605;28;19921;-70
2023/06/17 02:31:51;;;;;;;;;;;;;;;-146.25;100.00;52049.88;2079930;28;19925;-70
2023/06/17 02:32:53;;;;;;;;;;;;;;;-146.25;100.00;51999.19;2079655;28;19921;-70
2023/06/17 02:33:58;;;;;;;;;;;;;;;-146.25;100.00;52027.56;2079206;28;20879;-70
2023/06/17 02:35:00;;;;;;;;;;;;;;;-146.25;100.00;52047.84;2079779;28;19926;-70
2023/06/17 02:36:02;;;;;;;;;;;;;;;-146.25;100.00;52003.25;2079704;28;20765;-70
2023/06/17 02:37:04;;;;;;;;;;;;;;;-146.25;100.00;52035.69;2080333;28;20905;-70
2023/06/17 02:38:06;;;;;;;;;;;;;;;-146.25;100.00;52074.22;2079283;28;20796;-70
2023/06/17 02:39:11;;;;;;;;;;;;;;;-146.25;100.00;52015.41;2079735;28;20007;-70
2023/06/17 02:40:13;;;;;;;;;;;;;;;-146.25;100.00;52058.00;2079661;28;19924;-70
2023/06/17 02:41:14;;;;;;;;;;;;;;;-146.25;100.00;52043.78;2079598;28;29835;-70
2023/06/17 02:42:16;;;;;;;;;;;;;;;-146.25;100.00;52009.31;2079395;28;19921;-70
2023/06/17 02:43:18;;;;;;;;;;;;;;;-146.25;100.00;52049.88;2079980;28;20011;-71
2023/06/17 02:44:22;;;;;;;;;;;;;;;-146.25;100.00;52051.91;2087146;28;34991;-70
2023/06/17 02:45:25;;;;;;;;;;;;;;;-146.25;100.00;52009.31;2080157;28;19917;-71
2023/06/17 02:46:27;;;;;;;;;;;;;;;-146.25;100.00;52015.41;2078991;28;34587;-69
2023/06/17 02:47:30;;;;;;;;;;;;;;;-146.25;100.00;52023.53;2079869;28;19988;-71
2023/06/17 02:48:32;;;;;;;;;;;;;;;-146.25;100.00;52072.19;2079894;28;19921;-70
2023/06/17 02:49:34;;;;;;;;;;;;;;;-146.25;100.00;52045.81;2087912;28;26489;-70
2023/06/17 02:50:36;;;;;;;;;;;;;;;-146.25;100.00;52045.81;2079288;28;19956;-70
2023/06/17 02:51:38;;;;;;;;;;;;;;;-146.25;100.00;52051.91;2079429;28;23582;-70
2023/06/17 02:52:40;;;;;;;;;;;;;;;-146.25;100.00;52039.75;2079064;28;20116;-70
2023/06/17 02:53:42;;;;;;;;;;;;;;;-146.25;100.00;52015.41;2071159;28;20904;-70
2023/06/17 02:54:45;;;;;;;;;;;;;;;-146.25;100.00;52043.78;2070845;28;19984;-70
2023/06/17 02:55:53;;;;;;;;;;;;;;;-146.25;100.00;52049.88;2072437;28;19929;-70
2023/06/17 02:56:56;;;;;;;;;;;;;;;-146.25;100.00;52060.00;2071734;28;19926;-70
2023/06/17 02:57:57;;;;;;;;;;;;;;;-146.25;100.00;52058.00;2071881;28;19926;-70
2023/06/17 02:59:04;;;;;;;;;;;;;;;-146.25;100.00;52027.56;2080470;28;20820;-70
2023/06/17 03:00:06;;;;;;;;;;;;;;;-146.25;100.00;52051.91;2079639;28;25156;-70
2023/06/17 03:01:12;;;;;;;;;;;;;;;-146.25;100.00;52039.75;2079873;28;19921;-71
2023/06/17 03:02:15;;;;;;;;;;;;;;;-146.25;100.00;52060.00;2079445;28;19951;-70
2023/06/17 03:03:17;;;;;;;;;;;;;;;-146.25;100.00;52031.63;2079705;28;19921;-70
2023/06/17 03:04:20;;;;;;;;;;;;;;;-146.25;100.00;52043.78;2088013;28;19909;-70
2023/06/17 03:05:23;;;;;;;;;;;;;;;-146.25;100.00;52031.63;2079107;28;36433;-70
2023/06/17 03:06:25;;;;;;;;;;;;;;;-146.25;100.00;52037.72;2071822;28;19918;-70
2023/06/17 03:07:29;;;;;;;;;;;;;;;-146.25;100.00;52055.97;2071498;28;19932;-70
2023/06/17 03:08:33;;;;;;;;;;;;;;;-146.25;100.00;52092.44;2080142;28;19991;-70
2023/06/17 03:09:35;;;;;;;;;;;;;;;-146.25;100.00;52009.31;2079045;28;20833;-70
2023/06/17 03:10:37;;;;;;;;;;;;;;;-146.25;100.00;52039.75;2071656;28;20694;-70
2023/06/17 03:11:45;;;;;;;;;;;;;;;-146.25;100.00;52015.41;2080191;28;20881;-70
2023/06/17 03:12:46;;;;;;;;;;;;;;;-146.25;100.00;52037.72;2087715;28;20906;-70
2023/06/17 03:13:51;;;;;;;;;;;;;;;-146.25;100.00;52064.06;2088053;28;20134;-70
2023/06/17 03:14:58;;;;;;;;;;;;;;;-146.25;100.00;52051.91;2079964;28;20744;-70
2023/06/17 03:16:01;;;;;;;;;;;;;;;-146.25;100.00;52078.25;2079351;28;20821;-70
2023/06/17 03:17:07;;;;;;;;;;;;;;;-146.25;100.00;52037.72;2079610;28;19922;-70
2023/06/17 03:18:09;;;;;;;;;;;;;;;-146.25;100.00;52074.22;2079893;28;19921;-70
2023/06/17 03:19:11;;;;;;;;;;;;;;;-146.25;100.00;52007.31;2079603;28;19921;-70
2023/06/17 03:20:13;;;;;;;;;;;;;;;-146.25;100.00;52072.19;2079708;28;19910;-70
2023/06/17 03:21:15;;;;;;;;;;;;;;;-146.25;100.00;52055.97;2079410;28;19928;-69
2023/06/17 03:22:18;;;;;;;;;;;;;;;-146.25;100.00;52051.91;2080245;28;20051;-70
2023/06/17 03:23:24;;;;;;;;;;;;;;;-146.25;100.00;52086.38;2079630;28;19980;-70
2023/06/17 03:24:26;;;;;;;;;;;;;;;-146.25;100.00;52029.59;2071229;28;19929;-70
2023/06/17 03:25:29;;;;;;;;;;;;;;;-146.25;100.00;52037.72;2071769;28;19922;-70
2023/06/17 03:26:32;;;;;;;;;;;;;;;-146.25;100.00;52039.75;2079746;28;19925;-69
2023/06/17 03:27:37;;;;;;;;;;;;;;;-146.25;100.00;52031.63;2079593;28;20726;-70
2023/06/17 03:28:39;;;;;;;;;;;;;;;-146.25;100.00;52049.88;2071846;28;19980;-70
2023/06/17 03:29:40;;;;;;;;;;;;;;;-146.25;100.00;52053.94;2079844;28;19993;-69
2023/06/17 03:30:43;;;;;;;;;;;;;;;-146.25;100.00;52084.34;2087878;28;20780;-70
2023/06/17 03:31:45;;;;;;;;;;;;;;;-146.25;100.00;52029.59;2079598;28;19929;-70
2023/06/17 03:32:48;;;;;;;;;;;;;;;-146.25;100.00;52043.78;2079323;28;24564;-70
2023/06/17 03:33:52;;;;;;;;;;;;;;;-146.25;100.00;52037.72;2079675;28;20786;-70
2023/06/17 03:34:54;;;;;;;;;;;;;;;-146.25;100.00;52064.06;2072349;28;20036;-69
2023/06/17 03:35:57;;;;;;;;;;;;;;;-146.25;100.00;52053.94;2080995;28;20861;-69
2023/06/17 03:36:58;;;;;;;;;;;;;;;-146.25;100.00;52062.03;2080869;28;19925;-70
2023/06/17 03:38:01;;;;;;;;;;;;;;;-146.25;100.00;52027.56;2080899;28;20912;-69
2023/06/17 03:39:03;;;;;;;;;;;;;;;-146.25;100.00;52060.00;2081315;28;22010;-70
2023/06/17 03:40:09;;;;;;;;;;;;;;;-146.25;100.00;52043.78;2080848;28;19984;-70
2023/06/17 03:41:13;;;;;;;;;;;;;;;-146.25;100.00;52027.56;2082140;28;19929;-69
2023/06/17 03:42:16;;;;;;;;;;;;;;;-146.25;100.00;52035.69;2089112;28;19924;-70
2023/06/17 03:43:17;;;;;;;;;;;;;;;-146.25;100.00;52023.53;2081083;28;20802;-69
2023/06/17 03:44:20;;;;;;;;;;;;;;;-146.25;100.00;52041.75;2073216;28;20020;-70
2023/06/17 03:45:22;;;;;;;;;;;;;;;-146.25;100.00;52076.22;2080866;28;20974;-70
2023/06/17 03:46:25;;;;;;;;;;;;;;;-146.25;100.00;52041.75;2080878;28;19938;-70
2023/06/17 03:47:28;;;;;;;;;;;;;;;-146.25;100.00;52037.72;2072938;28;20056;-69
2023/06/17 03:48:30;;;;;;;;;;;;;;;-146.25;100.00;52043.78;2080835;28;19921;-70
2023/06/17 03:49:31;;;;;;;;;;;;;;;-146.25;100.00;52066.09;2080786;28;23686;-70
2023/06/17 03:50:34;;;;;;;;;;;;;;;-146.25;100.00;52031.63;2080940;28;20887;-70
2023/06/17 03:51:37;;;;;;;;;;;;;;;-146.25;100.00;52045.81;2081055;28;19933;-70
2023/06/17 03:52:40;;;;;;;;;;;;;;;-146.25;100.00;52066.09;2080712;28;19968;-70
2023/06/17 03:53:41;;;;;;;;;;;;;;;-146.25;100.00;52072.19;2080926;28;19984;-70
2023/06/17 03:54:43;;;;;;;;;;;;;;;-146.25;100.00;52049.88;2088830;28;19925;-70
2023/06/17 03:55:46;;;;;;;;;;;;;;;-146.25;100.00;52070.16;2080807;28;19965;-70
2023/06/17 03:56:49;;;;;;;;;;;;;;;-146.25;100.00;52092.44;2081055;28;19929;-70
2023/06/17 03:57:52;;;;;;;;;;;;;;;-146.25;100.00;52049.88;2080737;28;21000;-70
2023/06/17 03:58:54;;;;;;;;;;;;;;;-146.25;100.00;52062.03;2080465;28;24310;-70
2023/06/17 03:59:59;;;;;;;;;;;;;;;-146.25;100.00;52049.88;2089060;28;19921;-70
2023/06/17 04:01:01;;;;;;;;;;;;;;;-146.25;100.00;52019.47;2080299;28;26090;-70
2023/06/17 04:02:03;;;;;;;;;;;;;;;-146.25;100.00;52055.97;2080944;28;19925;-70
2023/06/17 04:03:07;;;;;;;;;;;;;;;-146.25;100.00;52055.97;2081183;28;23658;-70
2023/06/17 04:04:08;;;;;;;;;;;;;;;-146.25;100.00;52051.91;2080613;28;20722;-70
2023/06/17 04:05:12;;;;;;;;;;;;;;;-146.25;100.00;52092.44;2080598;28;23952;-70
2023/06/17 04:06:13;;;;;;;;;;;;;;;-146.25;100.00;52068.13;2089423;28;20820;-69
2023/06/17 04:07:19;;;;;;;;;;;;;;;-146.25;100.00;52070.16;2088252;28;25004;-70
2023/06/17 04:08:22;;;;;;;;;;;;;;;-146.25;100.00;52068.13;2081445;28;21825;-70
2023/06/17 04:09:24;;;;;;;;;;;;;;;-146.25;100.00;52062.03;2080438;28;19921;-69
2023/06/17 04:10:27;;;;;;;;;;;;;;;-146.25;100.00;52015.41;2072864;28;19926;-69
2023/06/17 04:11:32;;;;;;;;;;;;;;;-146.25;100.00;52058.00;2081154;28;24736;-70
2023/06/17 04:12:41;;;;;;;;;;;;;;;-146.25;100.00;52058.00;2081599;28;19922;-70
2023/06/17 04:13:42;;;;;;;;;;;;;;;-146.25;100.00;52025.53;2081527;28;19926;-69
2023/06/17 04:14:44;;;;;;;;;;;;;;;-146.25;100.00;52100.56;2081328;28;26987;-70
2023/06/17 04:15:46;;;;;;;;;;;;;;;-146.25;100.00;52072.19;2081400;28;20975;-69
2023/06/17 04:16:49;;;;;;;;;;;;;;;-146.25;100.00;52060.00;2080856;28;19917;-69
2023/06/17 04:17:50;;;;;;;;;;;;;;;-146.25;100.00;52047.84;2080504;28;19921;-68
2023/06/17 04:18:52;;;;;;;;;;;;;;;-146.25;100.00;52051.91;2080388;28;20737;-71
2023/06/17 04:19:56;;;;;;;;;;;;;;;-146.25;100.00;52033.66;2072377;28;25310;-70
2023/06/17 04:21:00;;;;;;;;;;;;;;;-146.25;100.00;52078.25;2080324;28;19921;-70
2023/06/17 04:22:05;;;;;;;;;;;;;;;-146.25;100.00;52080.28;2072692;28;19921;-70
2023/06/17 04:23:07;;;;;;;;;;;;;;;-146.25;100.00;52047.84;2080364;28;20813;-70
2023/06/17 04:24:08;;;;;;;;;;;;;;;-146.25;100.00;52055.97;2080468;28;20728;-70
2023/06/17 04:25:11;;;;;;;;;;;;;;;-146.25;100.00;52068.13;2080653;28;20719;-70
2023/06/17 04:26:18;;;;;;;;;;;;;;;-146.25;100.00;52076.22;2088396;28;20928;-70
2023/06/17 04:27:22;;;;;;;;;;;;;;;-146.25;100.00;52062.03;2088787;28;20010;-70
2023/06/17 04:28:31;;;;;;;;;;;;;;;-146.25;100.00;52070.16;2080442;28;19921;-70
2023/06/17 04:29:36;;;;;;;;;;;;;;;-146.25;100.00;52064.06;2074308;28;20818;-69
2023/06/17 04:30:40;;;;;;;;;;;;;;;-146.25;100.00;52055.97;2080878;28;19929;-70
2023/06/17 04:31:46;;;;;;;;;;;;;;;-146.25;100.00;52047.84;2088906;28;19977;-70
2023/06/17 04:32:49;;;;;;;;;;;;;;;-146.25;100.00;52070.16;2088220;28;19925;-70
2023/06/17 04:33:52;;;;;;;;;;;;;;;-146.25;100.00;52096.50;2080424;28;19976;-70
2023/06/17 04:34:54;;;;;;;;;;;;;;;-146.25;100.00;52053.94;2080615;28;19957;-69
2023/06/17 04:35:56;;;;;;;;;;;;;;;-146.25;100.00;52035.69;2080686;28;20007;-70
2023/06/17 04:36:58;;;;;;;;;;;;;;;-146.25;100.00;52058.00;2080734;28;19925;-70
2023/06/17 04:38:04;;;;;;;;;;;;;;;-146.25;100.00;52060.00;2080798;28;20846;-70
2023/06/17 04:39:06;;;;;;;;;;;;;;;-146.25;100.00;52055.97;2071945;28;21626;-70
2023/06/17 04:40:12;;;;;;;;;;;;;;;-146.25;100.00;52066.09;2072733;28;19918;-70
2023/06/17 04:41:16;;;;;;;;;;;;;;;-146.25;100.00;52074.22;2080245;28;19969;-70
2023/06/17 04:42:20;;;;;;;;;;;;;;;-146.25;100.00;52072.19;2080747;28;19961;-69
2023/06/17 04:43:22;;;;;;;;;;;;;;;-146.25;100.00;52084.34;2073102;28;21015;-70
2023/06/17 04:44:27;;;;;;;;;;;;;;;-146.25;100.00;52051.91;2072710;28;20155;-70
2023/06/17 04:45:28;;;;;;;;;;;;;;;-146.25;100.00;52029.59;2080357;28;20801;-70
2023/06/17 04:46:33;;;;;;;;;;;;;;;-146.25;100.00;52051.91;2079088;28;19930;-68
2023/06/17 04:47:37;;;;;;;;;;;;;;;-146.25;100.00;52064.06;2079854;28;26712;-70
2023/06/17 04:48:39;;;;;;;;;;;;;;;-146.25;100.00;52072.19;2080825;28;20417;-69
2023/06/17 04:49:44;;;;;;;;;;;;;;;-146.25;100.00;52058.00;2080189;28;19995;-70
2023/06/17 04:50:45;;;;;;;;;;;;;;;-146.25;100.00;52068.13;2088068;28;24349;-70
2023/06/17 04:51:48;;;;;;;;;;;;;;;-146.25;100.00;52045.81;2080749;28;19948;-70
2023/06/17 04:52:52;;;;;;;;;;;;;;;-146.25;100.00;52060.00;2080620;28;19921;-70
2023/06/17 04:54:00;;;;;;;;;;;;;;;-146.25;100.00;52078.25;2088309;28;19956;-70
2023/06/17 04:55:03;;;;;;;;;;;;;;;-146.25;100.00;52060.00;2088622;28;19968;-70
2023/06/17 04:56:07;;;;;;;;;;;;;;;-146.25;100.00;52031.63;2080409;28;19963;-70
2023/06/17 04:57:13;;;;;;;;;;;;;;;-146.25;100.00;52070.16;2072999;28;20004;-69
2023/06/17 04:58:15;;;;;;;;;;;;;;;-146.25;100.00;52078.25;2080573;28;20928;-69
2023/06/17 04:59:22;;;;;;;;;;;;;;;-146.25;100.00;52076.22;2079939;28;19921;-70
2023/06/17 05:00:24;;;;;;;;;;;;;;;-146.25;100.00;52070.16;2072277;28;20821;-70
2023/06/17 05:01:31;;;;;;;;;;;;;;;-146.25;99.81;52058.00;2080156;28;19925;-70
2023/06/17 05:02:32;;;;;;;;;;;;;;;-146.25;100.00;52080.28;2080174;28;20000;-69
2023/06/17 05:03:34;;;;;;;;;;;;;;;-146.25;99.38;52074.22;2080183;28;24593;-70
2023/06/17 05:04:36;;;;;;;;;;;;;;;-146.25;99.72;52094.47;2088751;28;20745;-70
2023/06/17 05:05:38;;;;;;;;;;;;;;;-146.25;98.84;52076.22;2080405;28;20110;-69
2023/06/17 05:06:44;;;;;;;;;;;;;;;-146.25;98.95;52078.25;2072142;28;19952;-70
2023/06/17 05:07:45;;;;;;;;;;;;;;;-146.25;99.19;52055.97;2072937;28;19918;-69
2023/06/17 05:08:48;;;;;;;;;;;;;;;-146.25;99.44;52062.03;2072467;28;20063;-69
2023/06/17 05:09:52;;;;;;;;;;;;;;;-146.25;99.10;52066.09;2080579;28;19989;-70
2023/06/17 05:10:54;;;;;;;;;;;;;;;-146.25;99.06;52072.19;2080444;28;20062;-69
2023/06/17 05:11:58;;;;;;;;;;;;;;;-146.25;98.87;52037.72;2072214;28;19922;-70
2023/06/17 05:12:59;;;;;;;;;;;;;;;-146.25;99.03;52084.34;2071843;28;20031;-70
2023/06/17 05:14:06;;;;;;;;;;;;;;;-146.25;98.78;52047.84;2072881;28;19932;-70
2023/06/17 05:15:08;;;;;;;;;;;;;;;-146.25;98.74;52051.91;2080603;28;20022;-70
2023/06/17 05:16:10;;;;;;;;;;;;;;;-146.25;98.17;52086.38;2088565;28;20753;-69
2023/06/17 05:17:14;;;;;;;;;;;;;;;-146.25;97.60;52039.75;2088636;28;19924;-70